sensor_id;sensor_type;location;lat;lon;timestamp;P1;durP1;ratioP1;P2;durP2;ratioP2
21513;SDS011;10918;48.102;11.636;2023-02-28T00:00:46;5.05;;;2.83;;
21513;SDS011;10918;48.102;11.636;2023-02-28T00:03:12;3.50;;;2.50;;
21513;SDS011;10918;48.102;11.636;2023-02-28T00:05:38;4.18;;;2.92;;
21513;SDS011;10918;48.102;11.636;2023-02-28T00:08:04;3.75;;;2.38;;
21513;SDS011;10918;48.102;11.636;2023-02-28T00:10:31;4.00;;;2.20;;
21513;SDS011;10918;48.102;11.636;2023-02-28T00:13:02;3.85;;;2.38;;
21513;SDS011;10918;48.102;11.636;2023-02-28T00:15:28;3.33;;;2.45;;
21513;SDS011;10918;48.102;11.636;2023-02-28T00:17:54;3.47;;;2.80;;
21513;SDS011;10918;48.102;11.636;2023-02-28T00:20:20;4.53;;;2.53;;
21513;SDS011;10918;48.102;11.636;2023-02-28T00:22:47;4.07;;;2.88;;
21513;SDS011;10918;48.102;11.636;2023-02-28T00:25:15;3.10;;;2.78;;
21513;SDS011;10918;48.102;11.636;2023-02-28T00:27:41;3.10;;;2.55;;
21513;SDS011;10918;48.102;11.636;2023-02-28T00:30:09;4.22;;;2.60;;
21513;SDS011;10918;48.102;11.636;2023-02-28T00:32:36;3.88;;;2.85;;
21513;SDS011;10918;48.102;11.636;2023-02-28T00:35:02;5.70;;;3.15;;
21513;SDS011;10918;48.102;11.636;2023-02-28T00:37:28;4.13;;;2.92;;
21513;SDS011;10918;48.102;11.636;2023-02-28T00:39:54;3.22;;;2.08;;
21513;SDS011;10918;48.102;11.636;2023-02-28T00:42:20;3.92;;;2.45;;
21513;SDS011;10918;48.102;11.636;2023-02-28T00:44:46;5.38;;;2.72;;
21513;SDS011;10918;48.102;11.636;2023-02-28T00:47:12;3.97;;;3.15;;
21513;SDS011;10918;48.102;11.636;2023-02-28T00:49:38;3.58;;;2.72;;
21513;SDS011;10918;48.102;11.636;2023-02-28T00:52:04;3.90;;;2.53;;
21513;SDS011;10918;48.102;11.636;2023-02-28T00:54:30;3.92;;;2.33;;
21513;SDS011;10918;48.102;11.636;2023-02-28T00:56:56;3.75;;;2.50;;
21513;SDS011;10918;48.102;11.636;2023-02-28T00:59:22;3.88;;;2.72;;
21513;SDS011;10918;48.102;11.636;2023-02-28T01:01:48;4.57;;;2.33;;
21513;SDS011;10918;48.102;11.636;2023-02-28T01:04:14;3.25;;;2.42;;
21513;SDS011;10918;48.102;11.636;2023-02-28T01:06:41;3.95;;;2.53;;
21513;SDS011;10918;48.102;11.636;2023-02-28T01:09:07;8.38;;;2.45;;
21513;SDS011;10918;48.102;11.636;2023-02-28T01:11:33;2.95;;;2.50;;
21513;SDS011;10918;48.102;11.636;2023-02-28T01:13:59;4.30;;;2.55;;
21513;SDS011;10918;48.102;11.636;2023-02-28T01:16:25;3.88;;;2.92;;
21513;SDS011;10918;48.102;11.636;2023-02-28T01:18:52;4.55;;;2.95;;
21513;SDS011;10918;48.102;11.636;2023-02-28T01:21:19;6.07;;;2.88;;
21513;SDS011;10918;48.102;11.636;2023-02-28T01:23:45;3.95;;;2.80;;
21513;SDS011;10918;48.102;11.636;2023-02-28T01:26:15;5.38;;;3.13;;
21513;SDS011;10918;48.102;11.636;2023-02-28T01:28:41;3.88;;;2.78;;
21513;SDS011;10918;48.102;11.636;2023-02-28T01:31:09;3.20;;;2.55;;
21513;SDS011;10918;48.102;11.636;2023-02-28T01:33:35;5.55;;;3.08;;
21513;SDS011;10918;48.102;11.636;2023-02-28T01:36:03;5.53;;;3.33;;
21513;SDS011;10918;48.102;11.636;2023-02-28T01:38:29;3.42;;;2.75;;
21513;SDS011;10918;48.102;11.636;2023-02-28T01:40:55;5.55;;;3.30;;
21513;SDS011;10918;48.102;11.636;2023-02-28T01:43:26;4.60;;;2.58;;
21513;SDS011;10918;48.102;11.636;2023-02-28T01:45:52;4.20;;;2.85;;
21513;SDS011;10918;48.102;11.636;2023-02-28T01:48:19;3.33;;;3.03;;
21513;SDS011;10918;48.102;11.636;2023-02-28T01:50:46;4.65;;;3.22;;
21513;SDS011;10918;48.102;11.636;2023-02-28T01:53:16;5.10;;;2.90;;
21513;SDS011;10918;48.102;11.636;2023-02-28T01:55:42;4.10;;;2.90;;
21513;SDS011;10918;48.102;11.636;2023-02-28T01:58:10;5.82;;;3.08;;
21513;SDS011;10918;48.102;11.636;2023-02-28T02:00:36;5.00;;;3.03;;
21513;SDS011;10918;48.102;11.636;2023-02-28T02:03:08;4.95;;;3.35;;
21513;SDS011;10918;48.102;11.636;2023-02-28T02:05:34;4.38;;;3.08;;
21513;SDS011;10918;48.102;11.636;2023-02-28T02:08:03;6.25;;;3.78;;
21513;SDS011;10918;48.102;11.636;2023-02-28T02:13:00;4.50;;;3.05;;
21513;SDS011;10918;48.102;11.636;2023-02-28T02:15:34;6.07;;;3.05;;
21513;SDS011;10918;48.102;11.636;2023-02-28T02:18:12;4.32;;;2.85;;
21513;SDS011;10918;48.102;11.636;2023-02-28T02:25:43;6.03;;;3.47;;
21513;SDS011;10918;48.102;11.636;2023-02-28T02:28:45;6.00;;;3.63;;
21513;SDS011;10918;48.102;11.636;2023-02-28T02:36:03;4.70;;;3.28;;
21513;SDS011;10918;48.102;11.636;2023-02-28T02:43:38;4.75;;;3.20;;
21513;SDS011;10918;48.102;11.636;2023-02-28T02:46:07;5.00;;;2.90;;
21513;SDS011;10918;48.102;11.636;2023-02-28T02:48:36;5.28;;;3.03;;
21513;SDS011;10918;48.102;11.636;2023-02-28T02:51:05;7.03;;;3.90;;
21513;SDS011;10918;48.102;11.636;2023-02-28T02:53:37;4.82;;;3.50;;
21513;SDS011;10918;48.102;11.636;2023-02-28T02:56:06;6.22;;;3.70;;
21513;SDS011;10918;48.102;11.636;2023-02-28T02:58:34;4.57;;;2.88;;
21513;SDS011;10918;48.102;11.636;2023-02-28T03:01:01;4.13;;;3.15;;
21513;SDS011;10918;48.102;11.636;2023-02-28T03:03:28;5.45;;;3.40;;
21513;SDS011;10918;48.102;11.636;2023-02-28T03:05:56;4.75;;;3.22;;
21513;SDS011;10918;48.102;11.636;2023-02-28T03:08:23;3.95;;;3.15;;
21513;SDS011;10918;48.102;11.636;2023-02-28T03:10:50;5.75;;;3.42;;
21513;SDS011;10918;48.102;11.636;2023-02-28T03:15:58;4.72;;;3.17;;
21513;SDS011;10918;48.102;11.636;2023-02-28T03:19:11;4.07;;;3.10;;
21513;SDS011;10918;48.102;11.636;2023-02-28T03:21:22;6.65;;;3.58;;
21513;SDS011;10918;48.102;11.636;2023-02-28T03:26:22;5.13;;;3.20;;
21513;SDS011;10918;48.102;11.636;2023-02-28T03:28:54;4.20;;;3.17;;
21513;SDS011;10918;48.102;11.636;2023-02-28T03:31:36;5.28;;;3.35;;
21513;SDS011;10918;48.102;11.636;2023-02-28T03:36:45;6.03;;;3.67;;
21513;SDS011;10918;48.102;11.636;2023-02-28T03:39:17;5.90;;;3.55;;
21513;SDS011;10918;48.102;11.636;2023-02-28T03:41:46;5.53;;;3.50;;
21513;SDS011;10918;48.102;11.636;2023-02-28T03:44:18;5.70;;;3.60;;
21513;SDS011;10918;48.102;11.636;2023-02-28T03:46:50;6.57;;;4.05;;
21513;SDS011;10918;48.102;11.636;2023-02-28T03:49:26;5.30;;;3.83;;
21513;SDS011;10918;48.102;11.636;2023-02-28T03:51:52;5.35;;;3.35;;
21513;SDS011;10918;48.102;11.636;2023-02-28T03:54:22;5.78;;;4.30;;
21513;SDS011;10918;48.102;11.636;2023-02-28T03:56:51;6.88;;;3.83;;
21513;SDS011;10918;48.102;11.636;2023-02-28T03:59:25;7.72;;;4.50;;
21513;SDS011;10918;48.102;11.636;2023-02-28T04:01:53;5.75;;;3.85;;
21513;SDS011;10918;48.102;11.636;2023-02-28T04:04:20;5.88;;;4.38;;
21513;SDS011;10918;48.102;11.636;2023-02-28T04:06:49;6.53;;;4.18;;
21513;SDS011;10918;48.102;11.636;2023-02-28T04:09:15;6.13;;;4.18;;
21513;SDS011;10918;48.102;11.636;2023-02-28T04:11:42;6.38;;;4.22;;
21513;SDS011;10918;48.102;11.636;2023-02-28T04:14:09;6.93;;;4.63;;
21513;SDS011;10918;48.102;11.636;2023-02-28T04:16:36;6.97;;;5.00;;
21513;SDS011;10918;48.102;11.636;2023-02-28T04:19:04;7.45;;;4.78;;
21513;SDS011;10918;48.102;11.636;2023-02-28T04:21:34;7.15;;;4.50;;
21513;SDS011;10918;48.102;11.636;2023-02-28T04:24:01;8.85;;;4.57;;
21513;SDS011;10918;48.102;11.636;2023-02-28T04:26:30;8.25;;;5.60;;
21513;SDS011;10918;48.102;11.636;2023-02-28T04:28:57;5.35;;;4.15;;
21513;SDS011;10918;48.102;11.636;2023-02-28T04:31:23;7.18;;;4.65;;
21513;SDS011;10918;48.102;11.636;2023-02-28T04:33:49;7.18;;;5.03;;
21513;SDS011;10918;48.102;11.636;2023-02-28T04:36:15;7.05;;;5.10;;
21513;SDS011;10918;48.102;11.636;2023-02-28T04:38:42;8.38;;;5.03;;
21513;SDS011;10918;48.102;11.636;2023-02-28T04:41:09;7.50;;;5.45;;
21513;SDS011;10918;48.102;11.636;2023-02-28T04:43:35;7.70;;;5.18;;
21513;SDS011;10918;48.102;11.636;2023-02-28T04:46:02;9.70;;;5.82;;
21513;SDS011;10918;48.102;11.636;2023-02-28T04:48:29;9.35;;;5.93;;
21513;SDS011;10918;48.102;11.636;2023-02-28T04:50:59;6.20;;;4.85;;
21513;SDS011;10918;48.102;11.636;2023-02-28T04:53:25;10.68;;;5.68;;
21513;SDS011;10918;48.102;11.636;2023-02-28T04:55:51;7.82;;;5.40;;
21513;SDS011;10918;48.102;11.636;2023-02-28T04:58:17;9.23;;;5.50;;
21513;SDS011;10918;48.102;11.636;2023-02-28T05:00:43;7.72;;;5.55;;
21513;SDS011;10918;48.102;11.636;2023-02-28T05:03:09;9.77;;;5.85;;
21513;SDS011;10918;48.102;11.636;2023-02-28T05:05:35;6.95;;;4.95;;
21513;SDS011;10918;48.102;11.636;2023-02-28T05:08:01;12.77;;;6.30;;
21513;SDS011;10918;48.102;11.636;2023-02-28T05:10:27;10.10;;;6.35;;
21513;SDS011;10918;48.102;11.636;2023-02-28T05:12:53;9.95;;;5.88;;
21513;SDS011;10918;48.102;11.636;2023-02-28T05:15:19;10.27;;;6.75;;
21513;SDS011;10918;48.102;11.636;2023-02-28T05:17:45;7.10;;;5.30;;
21513;SDS011;10918;48.102;11.636;2023-02-28T05:20:12;11.93;;;7.07;;
21513;SDS011;10918;48.102;11.636;2023-02-28T05:22:41;9.63;;;6.47;;
21513;SDS011;10918;48.102;11.636;2023-02-28T05:25:12;11.98;;;6.60;;
21513;SDS011;10918;48.102;11.636;2023-02-28T05:27:39;12.57;;;7.75;;
21513;SDS011;10918;48.102;11.636;2023-02-28T05:30:06;11.68;;;6.88;;
21513;SDS011;10918;48.102;11.636;2023-02-28T05:32:35;10.27;;;6.97;;
21513;SDS011;10918;48.102;11.636;2023-02-28T05:35:01;11.23;;;7.47;;
21513;SDS011;10918;48.102;11.636;2023-02-28T05:37:27;9.48;;;6.97;;
21513;SDS011;10918;48.102;11.636;2023-02-28T05:39:53;9.32;;;6.53;;
21513;SDS011;10918;48.102;11.636;2023-02-28T05:42:19;9.77;;;7.07;;
21513;SDS011;10918;48.102;11.636;2023-02-28T05:44:45;12.20;;;7.75;;
21513;SDS011;10918;48.102;11.636;2023-02-28T05:47:11;12.88;;;7.22;;
21513;SDS011;10918;48.102;11.636;2023-02-28T05:49:40;9.65;;;7.38;;
21513;SDS011;10918;48.102;11.636;2023-02-28T05:52:06;11.60;;;7.82;;
21513;SDS011;10918;48.102;11.636;2023-02-28T05:54:32;12.80;;;8.80;;
21513;SDS011;10918;48.102;11.636;2023-02-28T05:56:58;10.85;;;7.40;;
21513;SDS011;10918;48.102;11.636;2023-02-28T05:59:24;13.07;;;8.10;;
21513;SDS011;10918;48.102;11.636;2023-02-28T06:01:50;11.95;;;7.80;;
21513;SDS011;10918;48.102;11.636;2023-02-28T06:04:18;12.80;;;7.95;;
21513;SDS011;10918;48.102;11.636;2023-02-28T06:06:44;12.57;;;7.88;;
21513;SDS011;10918;48.102;11.636;2023-02-28T06:09:11;12.95;;;8.00;;
21513;SDS011;10918;48.102;11.636;2023-02-28T06:11:37;12.57;;;8.55;;
21513;SDS011;10918;48.102;11.636;2023-02-28T06:14:03;11.13;;;8.23;;
21513;SDS011;10918;48.102;11.636;2023-02-28T06:16:30;12.82;;;8.75;;
21513;SDS011;10918;48.102;11.636;2023-02-28T06:19:00;12.95;;;8.93;;
21513;SDS011;10918;48.102;11.636;2023-02-28T06:21:26;13.35;;;8.82;;
21513;SDS011;10918;48.102;11.636;2023-02-28T06:23:52;12.60;;;8.40;;
21513;SDS011;10918;48.102;11.636;2023-02-28T06:26:19;15.10;;;8.88;;
21513;SDS011;10918;48.102;11.636;2023-02-28T06:28:45;13.60;;;9.00;;
21513;SDS011;10918;48.102;11.636;2023-02-28T06:31:12;14.68;;;9.10;;
21513;SDS011;10918;48.102;11.636;2023-02-28T06:33:39;14.63;;;8.80;;
21513;SDS011;10918;48.102;11.636;2023-02-28T06:36:05;11.65;;;8.88;;
21513;SDS011;10918;48.102;11.636;2023-02-28T06:38:31;13.40;;;9.00;;
21513;SDS011;10918;48.102;11.636;2023-02-28T06:40:58;12.07;;;8.30;;
21513;SDS011;10918;48.102;11.636;2023-02-28T06:43:25;12.55;;;9.48;;
21513;SDS011;10918;48.102;11.636;2023-02-28T06:45:54;13.57;;;8.70;;
21513;SDS011;10918;48.102;11.636;2023-02-28T06:48:20;14.95;;;8.75;;
21513;SDS011;10918;48.102;11.636;2023-02-28T06:50:46;14.65;;;9.13;;
21513;SDS011;10918;48.102;11.636;2023-02-28T06:53:12;20.38;;;9.43;;
21513;SDS011;10918;48.102;11.636;2023-02-28T06:55:39;14.18;;;9.15;;
21513;SDS011;10918;48.102;11.636;2023-02-28T06:58:06;11.25;;;8.45;;
21513;SDS011;10918;48.102;11.636;2023-02-28T07:00:40;13.18;;;9.13;;
21513;SDS011;10918;48.102;11.636;2023-02-28T07:03:06;12.70;;;9.25;;
21513;SDS011;10918;48.102;11.636;2023-02-28T07:05:34;14.40;;;9.25;;
21513;SDS011;10918;48.102;11.636;2023-02-28T07:08:00;16.25;;;9.95;;
21513;SDS011;10918;48.102;11.636;2023-02-28T07:10:26;11.68;;;9.23;;
21513;SDS011;10918;48.102;11.636;2023-02-28T07:12:52;13.50;;;9.57;;
21513;SDS011;10918;48.102;11.636;2023-02-28T07:15:18;13.85;;;9.30;;
21513;SDS011;10918;48.102;11.636;2023-02-28T07:17:44;12.93;;;9.57;;
21513;SDS011;10918;48.102;11.636;2023-02-28T07:20:10;13.52;;;9.50;;
21513;SDS011;10918;48.102;11.636;2023-02-28T07:22:36;13.55;;;9.07;;
21513;SDS011;10918;48.102;11.636;2023-02-28T07:25:03;14.00;;;9.55;;
21513;SDS011;10918;48.102;11.636;2023-02-28T07:27:29;14.85;;;9.77;;
21513;SDS011;10918;48.102;11.636;2023-02-28T07:29:55;14.75;;;9.68;;
21513;SDS011;10918;48.102;11.636;2023-02-28T07:32:22;14.93;;;10.80;;
21513;SDS011;10918;48.102;11.636;2023-02-28T07:34:48;13.85;;;9.35;;
21513;SDS011;10918;48.102;11.636;2023-02-28T07:37:14;13.40;;;10.23;;
21513;SDS011;10918;48.102;11.636;2023-02-28T07:39:40;14.98;;;10.95;;
21513;SDS011;10918;48.102;11.636;2023-02-28T07:42:09;14.43;;;9.27;;
21513;SDS011;10918;48.102;11.636;2023-02-28T07:44:37;12.90;;;9.88;;
21513;SDS011;10918;48.102;11.636;2023-02-28T07:47:06;14.43;;;9.40;;
21513;SDS011;10918;48.102;11.636;2023-02-28T07:49:32;14.18;;;10.27;;
21513;SDS011;10918;48.102;11.636;2023-02-28T07:51:58;14.35;;;9.85;;
21513;SDS011;10918;48.102;11.636;2023-02-28T07:54:24;21.17;;;10.25;;
21513;SDS011;10918;48.102;11.636;2023-02-28T07:56:50;13.48;;;10.07;;
21513;SDS011;10918;48.102;11.636;2023-02-28T07:59:16;14.57;;;9.50;;
21513;SDS011;10918;48.102;11.636;2023-02-28T08:01:42;14.70;;;10.07;;
21513;SDS011;10918;48.102;11.636;2023-02-28T08:04:09;12.30;;;9.93;;
21513;SDS011;10918;48.102;11.636;2023-02-28T08:06:35;15.23;;;10.00;;
21513;SDS011;10918;48.102;11.636;2023-02-28T08:09:01;15.18;;;10.43;;
21513;SDS011;10918;48.102;11.636;2023-02-28T08:11:27;13.75;;;10.48;;
21513;SDS011;10918;48.102;11.636;2023-02-28T08:13:54;16.95;;;10.32;;
21513;SDS011;10918;48.102;11.636;2023-02-28T08:16:20;13.85;;;10.25;;
21513;SDS011;10918;48.102;11.636;2023-02-28T08:18:48;14.30;;;9.82;;
21513;SDS011;10918;48.102;11.636;2023-02-28T08:21:14;14.63;;;10.18;;
21513;SDS011;10918;48.102;11.636;2023-02-28T08:23:40;16.63;;;10.98;;
21513;SDS011;10918;48.102;11.636;2023-02-28T08:26:06;12.73;;;9.88;;
21513;SDS011;10918;48.102;11.636;2023-02-28T08:28:32;15.48;;;10.73;;
21513;SDS011;10918;48.102;11.636;2023-02-28T08:30:58;13.25;;;10.35;;
21513;SDS011;10918;48.102;11.636;2023-02-28T08:33:25;12.90;;;9.82;;
21513;SDS011;10918;48.102;11.636;2023-02-28T08:35:54;15.85;;;9.57;;
21513;SDS011;10918;48.102;11.636;2023-02-28T08:38:20;13.85;;;10.57;;
21513;SDS011;10918;48.102;11.636;2023-02-28T08:40:46;13.57;;;10.38;;
21513;SDS011;10918;48.102;11.636;2023-02-28T08:43:12;13.45;;;10.50;;
21513;SDS011;10918;48.102;11.636;2023-02-28T08:45:38;15.73;;;10.07;;
21513;SDS011;10918;48.102;11.636;2023-02-28T08:48:05;15.30;;;10.15;;
21513;SDS011;10918;48.102;11.636;2023-02-28T08:50:31;17.80;;;10.77;;
21513;SDS011;10918;48.102;11.636;2023-02-28T08:52:57;15.02;;;10.57;;
21513;SDS011;10918;48.102;11.636;2023-02-28T08:55:23;13.27;;;10.05;;
21513;SDS011;10918;48.102;11.636;2023-02-28T08:57:49;13.90;;;10.02;;
21513;SDS011;10918;48.102;11.636;2023-02-28T09:00:15;13.93;;;10.88;;
21513;SDS011;10918;48.102;11.636;2023-02-28T09:02:41;13.38;;;9.07;;
21513;SDS011;10918;48.102;11.636;2023-02-28T09:05:08;16.13;;;10.18;;
21513;SDS011;10918;48.102;11.636;2023-02-28T09:07:34;13.05;;;9.82;;
21513;SDS011;10918;48.102;11.636;2023-02-28T09:10:00;12.70;;;10.40;;
21513;SDS011;10918;48.102;11.636;2023-02-28T09:12:27;14.32;;;10.25;;
21513;SDS011;10918;48.102;11.636;2023-02-28T09:14:53;15.30;;;10.82;;
21513;SDS011;10918;48.102;11.636;2023-02-28T09:17:20;13.15;;;9.90;;
21513;SDS011;10918;48.102;11.636;2023-02-28T09:19:47;26.50;;;18.50;;
21513;SDS011;10918;48.102;11.636;2023-02-28T09:22:14;20.88;;;12.07;;
21513;SDS011;10918;48.102;11.636;2023-02-28T09:24:40;15.60;;;10.05;;
21513;SDS011;10918;48.102;11.636;2023-02-28T09:27:06;15.95;;;10.77;;
21513;SDS011;10918;48.102;11.636;2023-02-28T09:29:32;14.13;;;10.95;;
21513;SDS011;10918;48.102;11.636;2023-02-28T09:31:59;15.95;;;10.57;;
21513;SDS011;10918;48.102;11.636;2023-02-28T09:34:25;13.48;;;9.15;;
21513;SDS011;10918;48.102;11.636;2023-02-28T09:36:51;14.35;;;9.50;;
21513;SDS011;10918;48.102;11.636;2023-02-28T09:39:19;13.95;;;10.32;;
21513;SDS011;10918;48.102;11.636;2023-02-28T09:41:47;16.42;;;10.70;;
21513;SDS011;10918;48.102;11.636;2023-02-28T09:49:42;12.73;;;9.75;;
21513;SDS011;10918;48.102;11.636;2023-02-28T09:52:16;16.33;;;9.77;;
21513;SDS011;10918;48.102;11.636;2023-02-28T09:54:42;17.75;;;10.35;;
21513;SDS011;10918;48.102;11.636;2023-02-28T09:59:38;17.45;;;12.57;;
21513;SDS011;10918;48.102;11.636;2023-02-28T10:02:20;12.90;;;9.18;;
21513;SDS011;10918;48.102;11.636;2023-02-28T10:04:50;12.77;;;9.55;;
21513;SDS011;10918;48.102;11.636;2023-02-28T10:09:55;14.32;;;9.93;;
21513;SDS011;10918;48.102;11.636;2023-02-28T10:12:23;14.77;;;9.90;;
21513;SDS011;10918;48.102;11.636;2023-02-28T10:14:51;15.38;;;10.95;;
21513;SDS011;10918;48.102;11.636;2023-02-28T10:17:24;14.25;;;10.48;;
21513;SDS011;10918;48.102;11.636;2023-02-28T10:20:01;19.95;;;11.40;;
21513;SDS011;10918;48.102;11.636;2023-02-28T10:22:37;17.95;;;11.05;;
21513;SDS011;10918;48.102;11.636;2023-02-28T10:25:15;16.95;;;11.05;;
21513;SDS011;10918;48.102;11.636;2023-02-28T10:27:42;14.93;;;10.60;;
21513;SDS011;10918;48.102;11.636;2023-02-28T10:30:09;13.43;;;9.55;;
21513;SDS011;10918;48.102;11.636;2023-02-28T10:32:38;14.38;;;11.02;;
21513;SDS011;10918;48.102;11.636;2023-02-28T10:35:21;16.40;;;10.38;;
21513;SDS011;10918;48.102;11.636;2023-02-28T10:37:51;13.85;;;10.15;;
21513;SDS011;10918;48.102;11.636;2023-02-28T10:42:55;20.55;;;10.85;;
21513;SDS011;10918;48.102;11.636;2023-02-28T10:45:21;10.75;;;9.07;;
21513;SDS011;10918;48.102;11.636;2023-02-28T10:48:34;17.83;;;10.02;;
21513;SDS011;10918;48.102;11.636;2023-02-28T10:53:24;9.80;;;8.30;;
21513;SDS011;10918;48.102;11.636;2023-02-28T10:58:23;11.32;;;8.65;;
21513;SDS011;10918;48.102;11.636;2023-02-28T11:00:50;13.48;;;8.95;;
21513;SDS011;10918;48.102;11.636;2023-02-28T11:03:49;12.52;;;9.55;;
21513;SDS011;10918;48.102;11.636;2023-02-28T11:06:13;12.10;;;9.15;;
21513;SDS011;10918;48.102;11.636;2023-02-28T11:08:46;13.50;;;9.55;;
21513;SDS011;10918;48.102;11.636;2023-02-28T11:11:13;11.52;;;9.98;;
21513;SDS011;10918;48.102;11.636;2023-02-28T11:13:39;13.30;;;9.88;;
21513;SDS011;10918;48.102;11.636;2023-02-28T11:16:06;13.15;;;10.15;;
21513;SDS011;10918;48.102;11.636;2023-02-28T11:21:01;12.48;;;10.02;;
21513;SDS011;10918;48.102;11.636;2023-02-28T11:23:29;12.68;;;10.32;;
21513;SDS011;10918;48.102;11.636;2023-02-28T11:26:00;13.32;;;10.73;;
21513;SDS011;10918;48.102;11.636;2023-02-28T11:31:00;13.20;;;10.18;;
21513;SDS011;10918;48.102;11.636;2023-02-28T11:35:53;12.93;;;9.52;;
21513;SDS011;10918;48.102;11.636;2023-02-28T11:38:21;13.95;;;10.15;;
21513;SDS011;10918;48.102;11.636;2023-02-28T11:40:54;12.27;;;10.27;;
21513;SDS011;10918;48.102;11.636;2023-02-28T11:43:29;14.25;;;11.20;;
21513;SDS011;10918;48.102;11.636;2023-02-28T11:56:13;14.13;;;9.80;;
21513;SDS011;10918;48.102;11.636;2023-02-28T12:01:14;11.85;;;10.05;;
21513;SDS011;10918;48.102;11.636;2023-02-28T12:03:45;14.27;;;9.02;;
21513;SDS011;10918;48.102;11.636;2023-02-28T12:16:17;11.82;;;9.02;;
21513;SDS011;10918;48.102;11.636;2023-02-28T12:28:43;11.10;;;9.32;;
21513;SDS011;10918;48.102;11.636;2023-02-28T12:31:14;12.48;;;9.15;;
21513;SDS011;10918;48.102;11.636;2023-02-28T12:33:43;11.65;;;10.07;;
21513;SDS011;10918;48.102;11.636;2023-02-28T12:36:11;10.70;;;9.60;;
21513;SDS011;10918;48.102;11.636;2023-02-28T12:38:39;10.60;;;9.32;;
21513;SDS011;10918;48.102;11.636;2023-02-28T12:41:10;10.10;;;9.02;;
21513;SDS011;10918;48.102;11.636;2023-02-28T12:43:40;9.77;;;8.68;;
21513;SDS011;10918;48.102;11.636;2023-02-28T12:46:28;10.73;;;8.55;;
21513;SDS011;10918;48.102;11.636;2023-02-28T12:48:55;11.73;;;9.25;;
21513;SDS011;10918;48.102;11.636;2023-02-28T12:51:21;13.25;;;9.60;;
21513;SDS011;10918;48.102;11.636;2023-02-28T12:53:58;11.82;;;9.30;;
21513;SDS011;10918;48.102;11.636;2023-02-28T12:58:55;10.57;;;9.57;;
21513;SDS011;10918;48.102;11.636;2023-02-28T13:07:08;13.52;;;9.98;;
21513;SDS011;10918;48.102;11.636;2023-02-28T13:09:36;12.52;;;9.13;;
21513;SDS011;10918;48.102;11.636;2023-02-28T13:12:11;10.30;;;9.30;;
21513;SDS011;10918;48.102;11.636;2023-02-28T13:14:38;9.98;;;8.93;;
21513;SDS011;10918;48.102;11.636;2023-02-28T13:19:46;10.77;;;9.45;;
21513;SDS011;10918;48.102;11.636;2023-02-28T13:24:51;14.77;;;10.65;;
21513;SDS011;10918;48.102;11.636;2023-02-28T13:29:48;13.07;;;9.70;;
21513;SDS011;10918;48.102;11.636;2023-02-28T13:32:31;11.07;;;9.38;;
21513;SDS011;10918;48.102;11.636;2023-02-28T13:39:50;12.23;;;10.23;;
21513;SDS011;10918;48.102;11.636;2023-02-28T13:45:19;13.02;;;10.43;;
21513;SDS011;10918;48.102;11.636;2023-02-28T13:47:56;13.68;;;10.43;;
21513;SDS011;10918;48.102;11.636;2023-02-28T13:55:37;12.20;;;10.90;;
21513;SDS011;10918;48.102;11.636;2023-02-28T13:58:43;13.63;;;9.73;;
21513;SDS011;10918;48.102;11.636;2023-02-28T14:06:16;10.07;;;9.00;;
21513;SDS011;10918;48.102;11.636;2023-02-28T14:08:55;12.93;;;9.25;;
21513;SDS011;10918;48.102;11.636;2023-02-28T14:11:25;11.20;;;8.32;;
21513;SDS011;10918;48.102;11.636;2023-02-28T14:13:51;12.98;;;8.80;;
21513;SDS011;10918;48.102;11.636;2023-02-28T14:16:20;10.55;;;8.70;;
21513;SDS011;10918;48.102;11.636;2023-02-28T14:18:57;10.88;;;8.63;;
21513;SDS011;10918;48.102;11.636;2023-02-28T14:21:26;11.52;;;8.93;;
21513;SDS011;10918;48.102;11.636;2023-02-28T14:29:07;14.77;;;9.20;;
21513;SDS011;10918;48.102;11.636;2023-02-28T14:32:01;11.38;;;9.15;;
21513;SDS011;10918;48.102;11.636;2023-02-28T14:37:15;13.00;;;9.27;;
21513;SDS011;10918;48.102;11.636;2023-02-28T14:39:42;15.70;;;10.23;;
21513;SDS011;10918;48.102;11.636;2023-02-28T14:44:54;17.33;;;10.32;;
21513;SDS011;10918;48.102;11.636;2023-02-28T14:47:21;14.90;;;10.13;;
21513;SDS011;10918;48.102;11.636;2023-02-28T14:49:49;13.82;;;10.15;;
21513;SDS011;10918;48.102;11.636;2023-02-28T14:54:41;13.02;;;10.43;;
21513;SDS011;10918;48.102;11.636;2023-02-28T14:57:20;12.15;;;10.23;;
21513;SDS011;10918;48.102;11.636;2023-02-28T14:59:56;11.90;;;9.70;;
21513;SDS011;10918;48.102;11.636;2023-02-28T15:02:23;13.32;;;10.15;;
21513;SDS011;10918;48.102;11.636;2023-02-28T15:05:01;10.90;;;9.80;;
21513;SDS011;10918;48.102;11.636;2023-02-28T15:07:27;15.23;;;9.68;;
21513;SDS011;10918;48.102;11.636;2023-02-28T15:10:08;11.20;;;8.80;;
21513;SDS011;10918;48.102;11.636;2023-02-28T15:12:34;10.32;;;9.10;;
21513;SDS011;10918;48.102;11.636;2023-02-28T15:15:00;10.50;;;8.13;;
21513;SDS011;10918;48.102;11.636;2023-02-28T15:17:26;8.93;;;7.88;;
21513;SDS011;10918;48.102;11.636;2023-02-28T15:19:53;10.52;;;8.40;;
21513;SDS011;10918;48.102;11.636;2023-02-28T15:22:22;10.45;;;8.68;;
21513;SDS011;10918;48.102;11.636;2023-02-28T15:24:50;10.40;;;8.00;;
21513;SDS011;10918;48.102;11.636;2023-02-28T15:27:21;9.10;;;7.78;;
21513;SDS011;10918;48.102;11.636;2023-02-28T15:29:48;9.55;;;7.65;;
21513;SDS011;10918;48.102;11.636;2023-02-28T15:35:45;10.18;;;8.13;;
21513;SDS011;10918;48.102;11.636;2023-02-28T15:37:48;11.43;;;8.35;;
21513;SDS011;10918;48.102;11.636;2023-02-28T15:40:26;12.20;;;8.57;;
21513;SDS011;10918;48.102;11.636;2023-02-28T15:45:38;9.27;;;7.68;;
21513;SDS011;10918;48.102;11.636;2023-02-28T15:48:12;9.85;;;8.68;;
21513;SDS011;10918;48.102;11.636;2023-02-28T15:50:39;10.60;;;8.50;;
21513;SDS011;10918;48.102;11.636;2023-02-28T15:53:05;12.38;;;8.48;;
21513;SDS011;10918;48.102;11.636;2023-02-28T15:55:37;11.15;;;8.52;;
21513;SDS011;10918;48.102;11.636;2023-02-28T15:58:04;13.27;;;8.73;;
21513;SDS011;10918;48.102;11.636;2023-02-28T16:00:31;11.15;;;8.68;;
21513;SDS011;10918;48.102;11.636;2023-02-28T16:02:58;11.05;;;8.68;;
21513;SDS011;10918;48.102;11.636;2023-02-28T16:05:28;13.43;;;8.75;;
21513;SDS011;10918;48.102;11.636;2023-02-28T16:07:58;11.80;;;8.70;;
21513;SDS011;10918;48.102;11.636;2023-02-28T16:10:25;9.00;;;8.10;;
21513;SDS011;10918;48.102;11.636;2023-02-28T16:12:53;12.25;;;8.38;;
21513;SDS011;10918;48.102;11.636;2023-02-28T16:15:23;12.23;;;8.95;;
21513;SDS011;10918;48.102;11.636;2023-02-28T16:17:51;15.27;;;9.02;;
21513;SDS011;10918;48.102;11.636;2023-02-28T16:20:24;15.82;;;8.60;;
21513;SDS011;10918;48.102;11.636;2023-02-28T16:22:51;11.73;;;8.48;;
21513;SDS011;10918;48.102;11.636;2023-02-28T16:25:19;13.07;;;8.45;;
21513;SDS011;10918;48.102;11.636;2023-02-28T16:27:47;16.23;;;10.63;;
21513;SDS011;10918;48.102;11.636;2023-02-28T16:30:19;12.70;;;9.18;;
21513;SDS011;10918;48.102;11.636;2023-02-28T16:32:46;13.68;;;9.68;;
21513;SDS011;10918;48.102;11.636;2023-02-28T16:35:12;13.63;;;8.80;;
21513;SDS011;10918;48.102;11.636;2023-02-28T16:37:39;14.32;;;8.85;;
21513;SDS011;10918;48.102;11.636;2023-02-28T16:40:05;13.27;;;8.98;;
21513;SDS011;10918;48.102;11.636;2023-02-28T16:42:33;18.95;;;10.27;;
21513;SDS011;10918;48.102;11.636;2023-02-28T16:44:59;11.52;;;8.27;;
21513;SDS011;10918;48.102;11.636;2023-02-28T16:47:25;11.85;;;8.88;;